createdAt,value
2023-02-18T00:00:48.611Z,1.30
2023-02-18T00:01:51.252Z,1.92
2023-02-18T00:02:55.817Z,1.60
2023-02-18T00:04:00.257Z,1.80
2023-02-18T00:05:03.199Z,1.08
2023-02-18T00:06:17.051Z,1.95
2023-02-18T00:07:19.704Z,1.52
2023-02-18T00:08:22.694Z,2.40
2023-02-18T00:09:25.337Z,1.80
2023-02-18T00:10:27.984Z,1.50
2023-02-18T00:11:34.093Z,1.70
2023-02-18T00:12:36.619Z,2.40
2023-02-18T00:13:39.618Z,1.95
2023-02-18T00:14:42.139Z,1.10
2023-02-18T00:15:44.804Z,1.40
2023-02-18T00:16:47.305Z,1.38
2023-02-18T00:17:49.960Z,1.90
2023-02-18T00:18:59.186Z,2.70
2023-02-18T00:20:01.701Z,2.70
2023-02-18T00:21:05.902Z,1.73
2023-02-18T00:22:08.542Z,3.00
2023-02-18T00:23:11.067Z,1.67
2023-02-18T00:24:15.869Z,2.53
2023-02-18T00:25:18.503Z,2.80
2023-02-18T00:26:21.391Z,3.58
2023-02-18T00:27:23.904Z,1.58
2023-02-18T00:28:26.799Z,1.92
2023-02-18T00:29:29.434Z,2.50
2023-02-18T00:30:32.013Z,3.75
2023-02-18T00:31:37.215Z,2.17
2023-02-18T00:32:39.760Z,1.80
2023-02-18T00:33:42.874Z,1.15
2023-02-18T00:34:45.521Z,2.38
2023-02-18T00:35:48.044Z,1.42
2023-02-18T00:36:51.400Z,1.40
2023-02-18T00:37:54.042Z,1.52
2023-02-18T00:38:59.584Z,2.10
2023-02-18T00:40:02.085Z,1.70
2023-02-18T00:41:07.039Z,1.13
2023-02-18T00:42:10.020Z,1.75
2023-02-18T00:43:12.770Z,1.23
2023-02-18T00:44:15.411Z,1.45
2023-02-18T00:45:18.176Z,1.60
2023-02-18T00:46:22.540Z,1.75
2023-02-18T00:47:25.378Z,2.47
2023-02-18T00:48:28.385Z,1.30
2023-02-18T00:49:31.741Z,2.55
2023-02-18T00:50:34.746Z,3.53
2023-02-18T00:51:37.744Z,1.65
2023-02-18T00:52:40.748Z,2.85
2023-02-18T00:53:44.013Z,1.48
2023-02-18T00:54:47.110Z,1.58
2023-02-18T00:55:50.233Z,2.28
2023-02-18T00:56:53.472Z,1.90
2023-02-18T00:57:56.593Z,1.70
2023-02-18T00:58:59.834Z,1.60
2023-02-18T01:00:05.598Z,1.85
2023-02-18T01:01:10.646Z,4.55
2023-02-18T01:02:13.764Z,2.70
2023-02-18T01:03:16.884Z,2.10
2023-02-18T01:04:20.198Z,1.88
2023-02-18T01:05:24.573Z,1.70
2023-02-18T01:06:27.691Z,2.38
2023-02-18T01:07:30.815Z,2.03
2023-02-18T01:08:34.895Z,3.65
2023-02-18T01:09:38.017Z,1.92
2023-02-18T01:10:43.659Z,3.65
2023-02-18T01:11:46.901Z,3.08
2023-02-18T01:12:50.141Z,1.70
2023-02-18T01:13:53.394Z,1.92
2023-02-18T01:14:56.512Z,1.52
2023-02-18T01:15:59.900Z,3.10
2023-02-18T01:17:05.886Z,2.63
2023-02-18T01:18:10.072Z,2.17
2023-02-18T01:19:13.315Z,1.65
2023-02-18T01:20:18.717Z,1.80
2023-02-18T01:21:22.438Z,1.33
2023-02-18T01:22:25.563Z,2.38
2023-02-18T01:23:29.049Z,1.50
2023-02-18T01:24:32.284Z,1.35
2023-02-18T01:25:37.204Z,1.17
2023-02-18T01:26:40.451Z,1.85
2023-02-18T01:27:44.170Z,1.70
2023-02-18T01:28:47.414Z,1.67
2023-02-18T01:29:50.774Z,2.22
2023-02-18T01:30:54.569Z,1.92
2023-02-18T01:31:57.381Z,3.03
2023-02-18T01:33:00.501Z,2.95
2023-02-18T01:34:03.144Z,2.58
2023-02-18T01:35:06.626Z,1.98
2023-02-18T01:36:10.955Z,3.70
2023-02-18T01:37:13.947Z,3.90
2023-02-18T01:38:16.705Z,5.13
2023-02-18T01:39:19.951Z,2.38
2023-02-18T01:40:26.118Z,3.65
2023-02-18T01:41:28.951Z,3.05
2023-02-18T01:42:31.636Z,3.33
2023-02-18T01:43:34.955Z,3.85
2023-02-18T01:44:38.124Z,3.03
2023-02-18T01:45:43.637Z,1.38
2023-02-18T01:46:47.006Z,3.20
2023-02-18T01:47:50.720Z,1.77
2023-02-18T01:49:01.764Z,2.30
2023-02-18T01:50:04.641Z,3.88
2023-02-18T01:51:16.521Z,2.60
2023-02-18T01:52:24.444Z,10.68
2023-02-18T01:53:33.526Z,7.43
2023-02-18T01:54:43.367Z,3.42
2023-02-18T01:55:47.843Z,1.80
2023-02-18T01:56:57.712Z,4.65
2023-02-18T01:58:00.324Z,4.32
2023-02-18T01:59:08.248Z,2.85
2023-02-18T02:00:17.395Z,2.03
2023-02-18T02:01:22.887Z,5.18
2023-02-18T02:02:28.529Z,2.70
2023-02-18T02:03:31.310Z,5.78
2023-02-18T02:04:34.051Z,3.85
2023-02-18T02:05:37.985Z,7.18
2023-02-18T02:06:41.013Z,2.05
2023-02-18T02:07:45.474Z,4.03
2023-02-18T02:08:51.342Z,3.63
2023-02-18T02:09:56.612Z,1.33
2023-02-18T02:11:13.775Z,2.00
2023-02-18T02:12:46.651Z,2.38
2023-02-18T02:14:07.654Z,1.00
2023-02-18T02:15:31.180Z,2.05
2023-02-18T02:17:18.696Z,3.38
2023-02-18T02:18:37.899Z,2.50
2023-02-18T02:20:27.936Z,4.47
2023-02-18T02:21:49.180Z,3.33
2023-02-18T02:23:09.705Z,3.15
2023-02-18T02:24:39.698Z,3.03
2023-02-18T02:25:54.227Z,2.38
2023-02-18T02:27:02.503Z,2.70
2023-02-18T02:28:10.917Z,3.65
2023-02-18T02:29:29.025Z,3.22
2023-02-18T02:30:47.769Z,2.75
2023-02-18T02:32:11.510Z,3.17
2023-02-18T02:33:41.150Z,2.40
2023-02-18T02:34:55.436Z,1.58
2023-02-18T02:36:37.798Z,1.20
2023-02-18T02:38:00.479Z,1.50
2023-02-18T02:39:14.879Z,1.33
2023-02-18T02:40:45.122Z,1.25
2023-02-18T02:42:12.367Z,1.33
2023-02-18T02:43:51.854Z,2.55
2023-02-18T02:45:11.543Z,2.45
2023-02-18T02:46:29.290Z,2.13
2023-02-18T02:47:55.815Z,1.48
2023-02-18T02:49:19.699Z,2.08
2023-02-18T02:50:45.142Z,1.75
2023-02-18T02:51:53.544Z,1.15
2023-02-18T02:53:02.784Z,1.55
2023-02-18T02:54:17.609Z,1.63
2023-02-18T02:55:20.913Z,1.33
2023-02-18T02:56:26.792Z,1.13
2023-02-18T02:57:31.233Z,1.13
2023-02-18T02:59:01.236Z,1.33
2023-02-18T03:00:12.279Z,1.25
2023-02-18T03:01:36.040Z,1.23
2023-02-18T03:03:17.819Z,1.98
2023-02-18T03:04:47.925Z,1.30
2023-02-18T03:06:03.888Z,1.70
2023-02-18T03:07:25.011Z,1.75
2023-02-18T03:08:37.252Z,1.05
2023-02-18T03:09:57.416Z,1.60
2023-02-18T03:11:08.108Z,1.17
2023-02-18T03:12:23.459Z,1.13
2023-02-18T03:14:05.367Z,1.30
2023-02-18T03:15:49.384Z,1.40
2023-02-18T03:17:21.067Z,1.35
2023-02-18T03:18:47.591Z,1.42
2023-02-18T03:19:58.160Z,1.20
2023-02-18T03:21:10.399Z,1.42
2023-02-18T03:22:27.675Z,2.03
2023-02-18T03:23:58.880Z,1.40
2023-02-18T03:25:05.361Z,1.90
2023-02-18T03:26:10.162Z,2.72
2023-02-18T03:27:20.363Z,1.60
2023-02-18T03:28:27.805Z,1.45
2023-02-18T03:29:31.409Z,1.20
2023-02-18T03:30:44.975Z,0.93
2023-02-18T03:31:54.110Z,2.08
2023-02-18T03:33:01.773Z,1.98
2023-02-18T03:34:12.105Z,1.67
2023-02-18T03:35:18.376Z,1.25
2023-02-18T03:36:22.187Z,1.70
2023-02-18T03:37:25.182Z,0.60
2023-02-18T03:39:00.223Z,1.80
2023-02-18T03:40:04.305Z,0.82
2023-02-18T03:41:07.239Z,1.58
2023-02-18T03:42:11.836Z,1.20
2023-02-18T03:43:14.522Z,3.05
2023-02-18T03:44:17.333Z,1.23
2023-02-18T03:45:20.082Z,1.40
2023-02-18T03:46:23.082Z,1.27
2023-02-18T03:47:26.087Z,1.38
2023-02-18T03:48:28.967Z,1.08
2023-02-18T03:49:31.603Z,1.08
2023-02-18T03:50:36.250Z,0.95
2023-02-18T03:51:38.929Z,1.90
2023-02-18T03:52:41.448Z,2.03
2023-02-18T03:53:44.088Z,1.33
2023-02-18T03:54:48.287Z,1.52
2023-02-18T03:55:51.050Z,1.20
2023-02-18T03:56:53.690Z,1.58
2023-02-18T03:57:56.293Z,1.35
2023-02-18T03:58:59.690Z,1.60
2023-02-18T04:00:02.449Z,1.17
2023-02-18T04:01:15.930Z,1.13
2023-02-18T04:02:18.497Z,0.98
2023-02-18T04:03:21.535Z,1.65
2023-02-18T04:04:24.266Z,1.35
2023-02-18T04:05:26.931Z,1.10
2023-02-18T04:06:29.578Z,1.50
2023-02-18T04:07:32.187Z,1.25
2023-02-18T04:08:35.104Z,1.08
2023-02-18T04:09:38.813Z,1.17
2023-02-18T04:10:41.455Z,1.13
2023-02-18T04:11:44.116Z,1.13
2023-02-18T04:12:46.743Z,1.50
2023-02-18T04:13:49.616Z,2.00
2023-02-18T04:14:52.146Z,1.50
2023-02-18T04:15:54.775Z,1.50
2023-02-18T04:16:57.397Z,1.13
2023-02-18T04:17:59.940Z,1.27
2023-02-18T04:19:02.705Z,1.10
2023-02-18T04:20:06.064Z,1.65
2023-02-18T04:21:08.697Z,0.98
2023-02-18T04:22:11.219Z,1.40
2023-02-18T04:23:13.864Z,1.30
2023-02-18T04:24:16.522Z,1.55
2023-02-18T04:25:19.063Z,1.20
2023-02-18T04:26:21.542Z,1.00
2023-02-18T04:27:24.062Z,1.50
2023-02-18T04:28:26.716Z,1.65
2023-02-18T04:29:29.228Z,1.95
2023-02-18T04:30:32.225Z,1.65
2023-02-18T04:31:34.828Z,3.35
2023-02-18T04:32:37.384Z,1.88
2023-02-18T04:33:39.910Z,1.52
2023-02-18T04:34:42.550Z,1.40
2023-02-18T04:35:45.190Z,1.90
2023-02-18T04:36:47.735Z,1.63
2023-02-18T04:37:50.713Z,1.42
2023-02-18T04:38:53.364Z,2.53
2023-02-18T04:39:55.996Z,2.90
2023-02-18T04:40:58.638Z,3.60
2023-02-18T04:42:01.522Z,1.80
2023-02-18T04:43:04.061Z,2.35
2023-02-18T04:44:06.579Z,2.00
2023-02-18T04:45:09.579Z,3.17
2023-02-18T04:46:12.184Z,3.05
2023-02-18T04:47:14.971Z,3.47
2023-02-18T04:48:17.612Z,2.33
2023-02-18T04:49:20.372Z,2.80
2023-02-18T04:50:23.499Z,3.15
2023-02-18T04:51:26.140Z,2.60
2023-02-18T04:52:28.909Z,3.30
2023-02-18T04:53:31.541Z,3.13
2023-02-18T04:54:34.543Z,3.83
2023-02-18T04:55:37.423Z,2.15
2023-02-18T04:56:40.302Z,2.13
2023-02-18T04:57:43.433Z,2.10
2023-02-18T04:58:46.547Z,3.20
2023-02-18T04:59:49.674Z,2.42
2023-02-18T05:00:54.248Z,2.22
2023-02-18T05:01:57.353Z,2.25
2023-02-18T05:03:00.478Z,2.45
2023-02-18T05:04:03.854Z,2.42
2023-02-18T05:05:07.082Z,3.20
2023-02-18T05:06:10.420Z,2.10
2023-02-18T05:07:13.691Z,1.90
2023-02-18T05:08:16.811Z,1.95
2023-02-18T05:09:19.934Z,3.35
2023-02-18T05:10:23.057Z,3.00
2023-02-18T05:11:26.175Z,2.83
2023-02-18T05:12:29.296Z,3.42
2023-02-18T05:13:32.421Z,3.38
2023-02-18T05:14:35.540Z,2.70
2023-02-18T05:15:38.685Z,3.72
2023-02-18T05:16:42.022Z,3.67
2023-02-18T05:17:45.146Z,3.35
2023-02-18T05:18:48.392Z,3.28
2023-02-18T05:19:51.511Z,3.53
2023-02-18T05:20:54.630Z,3.08
2023-02-18T05:21:57.756Z,3.85
2023-02-18T05:23:00.876Z,5.60
2023-02-18T05:24:04.357Z,5.15
2023-02-18T05:25:08.081Z,4.07
2023-02-18T05:26:11.422Z,4.85
2023-02-18T05:27:14.684Z,4.22
2023-02-18T05:28:18.046Z,4.22
2023-02-18T05:29:21.286Z,4.75
2023-02-18T05:30:24.947Z,3.72
2023-02-18T05:31:28.314Z,4.53
2023-02-18T05:32:31.615Z,4.07
2023-02-18T05:33:34.620Z,4.55
2023-02-18T05:34:37.612Z,4.32
2023-02-18T05:35:40.737Z,5.78
2023-02-18T05:36:44.217Z,4.20
2023-02-18T05:37:47.226Z,5.10
2023-02-18T05:38:49.979Z,4.00
2023-02-18T05:39:52.680Z,4.35
2023-02-18T05:40:56.238Z,4.55
2023-02-18T05:41:58.798Z,5.13
2023-02-18T05:43:01.326Z,4.65
2023-02-18T05:44:22.510Z,4.97
2023-02-18T05:46:27.736Z,5.07
2023-02-18T05:47:30.362Z,4.90
2023-02-18T05:48:33.004Z,5.00
2023-02-18T05:49:36.316Z,5.18
2023-02-18T05:50:38.887Z,4.72
2023-02-18T05:51:41.404Z,4.63
2023-02-18T05:52:43.930Z,5.35
2023-02-18T05:53:46.444Z,5.57
2023-02-18T05:54:49.045Z,5.55
2023-02-18T05:55:51.690Z,4.90
2023-02-18T05:56:54.737Z,6.00
2023-02-18T05:57:57.369Z,5.88
2023-02-18T05:58:59.889Z,5.72
2023-02-18T06:00:02.423Z,5.90
2023-02-18T06:01:07.225Z,5.65
2023-02-18T06:02:09.849Z,7.30
2023-02-18T06:03:12.370Z,7.05
2023-02-18T06:04:15.612Z,5.88
2023-02-18T06:05:18.376Z,4.80
2023-02-18T06:06:21.016Z,5.75
2023-02-18T06:07:23.653Z,7.15
2023-02-18T06:08:26.428Z,6.35
2023-02-18T06:09:29.056Z,6.55
2023-02-18T06:10:31.588Z,5.85
2023-02-18T06:11:35.058Z,8.35
2023-02-18T06:12:37.582Z,6.18
2023-02-18T06:13:40.221Z,6.38
2023-02-18T06:14:43.109Z,6.60
2023-02-18T06:15:45.774Z,7.13
2023-02-18T06:16:48.383Z,5.63
2023-02-18T06:17:50.915Z,6.88
2023-02-18T06:18:53.543Z,7.32
2023-02-18T06:19:56.181Z,7.00
2023-02-18T06:20:59.196Z,6.88
2023-02-18T06:22:02.065Z,7.78
2023-02-18T06:23:07.631Z,8.30
2023-02-18T06:24:11.541Z,7.53
2023-02-18T06:25:14.549Z,7.03
2023-02-18T06:26:17.065Z,7.80
2023-02-18T06:27:19.602Z,8.13
2023-02-18T06:28:22.232Z,8.80
2023-02-18T06:29:25.109Z,7.00
2023-02-18T06:30:27.680Z,9.40
2023-02-18T06:31:30.365Z,8.02
2023-02-18T06:32:32.912Z,7.95
2023-02-18T06:33:35.551Z,8.48
2023-02-18T06:34:38.069Z,7.90
2023-02-18T06:35:40.719Z,8.25
2023-02-18T06:36:43.231Z,7.95
2023-02-18T06:37:45.992Z,8.05
2023-02-18T06:38:48.523Z,8.32
2023-02-18T06:39:51.159Z,7.78
2023-02-18T06:40:53.931Z,8.38
2023-02-18T06:41:56.446Z,8.13
2023-02-18T06:42:58.958Z,7.15
2023-02-18T06:44:01.490Z,8.52
2023-02-18T06:45:06.774Z,8.43
2023-02-18T06:46:09.842Z,8.75
2023-02-18T06:47:12.649Z,8.70
2023-02-18T06:48:15.528Z,8.57
2023-02-18T06:49:18.052Z,9.10
2023-02-18T06:50:20.690Z,8.70
2023-02-18T06:51:23.332Z,9.65
2023-02-18T06:52:26.104Z,10.38
2023-02-18T06:53:29.095Z,9.00
2023-02-18T06:54:32.217Z,9.60
2023-02-18T06:55:35.099Z,9.32
2023-02-18T06:56:38.703Z,11.13
2023-02-18T06:57:41.709Z,10.65
2023-02-18T06:58:45.066Z,10.32
2023-02-18T06:59:48.073Z,9.95
2023-02-18T07:00:51.108Z,10.73
2023-02-18T07:01:54.189Z,10.55
2023-02-18T07:02:57.311Z,10.70
2023-02-18T07:04:00.512Z,9.30
2023-02-18T07:05:03.793Z,10.27
2023-02-18T07:06:07.411Z,10.88
2023-02-18T07:07:10.638Z,10.45
2023-02-18T07:08:13.881Z,9.93
2023-02-18T07:09:17.120Z,11.38
2023-02-18T07:10:20.370Z,10.55
2023-02-18T07:11:23.488Z,11.43
2023-02-18T07:12:26.611Z,11.52
2023-02-18T07:13:29.728Z,12.82
2023-02-18T07:14:32.970Z,13.75
2023-02-18T07:15:36.090Z,12.48
2023-02-18T07:16:39.263Z,11.48
2023-02-18T07:17:42.458Z,11.93
2023-02-18T07:18:46.778Z,12.38
2023-02-18T07:19:50.020Z,12.95
2023-02-18T07:20:53.141Z,15.07
2023-02-18T07:21:58.061Z,14.57
2023-02-18T07:23:01.421Z,14.65
2023-02-18T07:24:04.904Z,14.48
2023-02-18T07:25:08.265Z,13.95
2023-02-18T07:26:14.270Z,16.25
2023-02-18T07:27:17.656Z,15.68
2023-02-18T07:28:20.870Z,14.30
2023-02-18T07:29:24.234Z,16.02
2023-02-18T07:30:27.507Z,14.88
2023-02-18T07:31:30.767Z,14.60
2023-02-18T07:32:34.442Z,16.83
2023-02-18T07:33:37.568Z,16.65
2023-02-18T07:34:41.282Z,15.73
2023-02-18T07:35:44.287Z,15.25
2023-02-18T07:36:47.405Z,16.77
2023-02-18T07:37:51.127Z,16.05
2023-02-18T07:38:53.888Z,14.77
2023-02-18T07:39:56.773Z,15.68
2023-02-18T07:41:00.500Z,15.82
2023-02-18T07:42:04.332Z,15.90
2023-02-18T07:43:08.799Z,13.57
2023-02-18T07:44:11.232Z,14.80
2023-02-18T07:45:14.603Z,14.57
2023-02-18T07:46:17.660Z,13.98
2023-02-18T07:47:20.355Z,15.65
2023-02-18T07:48:22.955Z,14.63
2023-02-18T07:49:26.115Z,16.20
2023-02-18T07:50:28.741Z,13.80
2023-02-18T07:51:31.396Z,13.32
2023-02-18T07:52:33.994Z,11.27
2023-02-18T07:53:37.516Z,11.95
2023-02-18T07:54:40.041Z,12.88
2023-02-18T07:55:51.702Z,10.90
2023-02-18T07:56:55.042Z,9.48
2023-02-18T07:57:57.684Z,11.48
2023-02-18T07:59:00.204Z,11.70
2023-02-18T08:00:03.207Z,9.68
2023-02-18T08:01:15.442Z,10.70
2023-02-18T08:02:22.663Z,10.48
2023-02-18T08:03:30.693Z,9.32
2023-02-18T08:04:34.649Z,9.15
2023-02-18T08:05:37.287Z,9.07
2023-02-18T08:06:42.655Z,8.73
2023-02-18T08:07:45.417Z,8.55
2023-02-18T08:08:48.084Z,8.35
2023-02-18T08:09:51.025Z,7.38
2023-02-18T08:10:55.512Z,7.55
2023-02-18T08:11:58.527Z,7.10
2023-02-18T08:13:01.172Z,8.20
2023-02-18T08:14:04.056Z,6.25
2023-02-18T08:15:06.816Z,5.50
2023-02-18T08:16:10.646Z,5.40
2023-02-18T08:17:13.424Z,5.10
2023-02-18T08:18:22.299Z,4.68
2023-02-18T08:19:25.183Z,5.80
2023-02-18T08:20:30.485Z,5.10
2023-02-18T08:21:33.341Z,4.82
2023-02-18T08:22:35.861Z,4.07
2023-02-18T08:23:38.501Z,4.75
2023-02-18T08:24:41.148Z,4.38
2023-02-18T08:25:50.150Z,5.13
2023-02-18T08:27:00.258Z,5.63
2023-02-18T08:28:03.948Z,5.07
2023-02-18T08:29:06.490Z,5.40
2023-02-18T08:30:09.608Z,3.85
2023-02-18T08:31:21.224Z,3.38
2023-02-18T08:32:27.830Z,4.57
2023-02-18T08:33:30.588Z,3.97
2023-02-18T08:34:33.110Z,4.40
2023-02-18T08:35:35.529Z,3.70
2023-02-18T08:36:38.032Z,4.13
2023-02-18T08:37:52.921Z,4.10
2023-02-18T08:38:57.835Z,3.65
2023-02-18T08:40:02.523Z,4.18
2023-02-18T08:41:07.385Z,4.80
2023-02-18T08:42:10.081Z,3.70
2023-02-18T08:43:15.362Z,3.75
2023-02-18T08:44:17.909Z,4.93
2023-02-18T08:45:20.526Z,5.25
2023-02-18T08:46:25.147Z,4.13
2023-02-18T08:48:19.490Z,4.57
2023-02-18T08:48:58.452Z,3.80
2023-02-18T08:50:01.103Z,4.20
2023-02-18T08:51:18.615Z,4.50
2023-02-18T08:52:21.498Z,3.97
2023-02-18T08:53:24.142Z,4.25
2023-02-18T08:54:27.018Z,4.40
2023-02-18T08:55:31.700Z,4.93
2023-02-18T08:56:34.603Z,3.78
2023-02-18T08:57:37.344Z,4.43
2023-02-18T08:58:40.467Z,3.50
2023-02-18T08:59:43.474Z,3.67
2023-02-18T09:00:46.729Z,3.47
2023-02-18T09:01:49.855Z,3.15
2023-02-18T09:02:52.848Z,3.90
2023-02-18T09:03:56.028Z,3.03
2023-02-18T09:04:59.195Z,4.13
2023-02-18T09:06:03.040Z,2.90
2023-02-18T09:07:06.281Z,2.75
2023-02-18T09:08:09.521Z,3.13
2023-02-18T09:09:12.653Z,2.22
2023-02-18T09:10:17.093Z,2.88
2023-02-18T09:11:21.170Z,3.58
2023-02-18T09:12:24.407Z,3.33
2023-02-18T09:13:28.501Z,3.20
2023-02-18T09:14:32.092Z,3.45
2023-02-18T09:15:35.278Z,2.95
2023-02-18T09:16:39.896Z,3.67
2023-02-18T09:17:43.140Z,3.58
2023-02-18T09:18:48.062Z,3.53
2023-02-18T09:19:51.183Z,3.63
2023-02-18T09:20:58.502Z,3.38
2023-02-18T09:22:02.221Z,3.35
2023-02-18T09:23:05.344Z,3.70
2023-02-18T09:24:08.591Z,3.90
2023-02-18T09:25:11.946Z,4.20
2023-02-18T09:26:17.714Z,4.88
2023-02-18T09:27:22.632Z,4.15
2023-02-18T09:28:26.110Z,4.43
2023-02-18T09:29:29.593Z,4.93
2023-02-18T09:30:33.114Z,4.35
2023-02-18T09:31:36.515Z,4.35
2023-02-18T09:32:40.206Z,4.65
2023-02-18T09:33:46.761Z,3.40
2023-02-18T09:34:49.909Z,4.65
2023-02-18T09:35:53.245Z,5.97
2023-02-18T09:36:56.242Z,4.90
2023-02-18T09:37:59.021Z,4.40
2023-02-18T09:39:02.247Z,4.28
2023-02-18T09:40:05.980Z,4.07
2023-02-18T09:41:39.936Z,4.70
2023-02-18T09:42:43.061Z,5.25
2023-02-18T09:43:49.416Z,5.47
2023-02-18T09:44:58.295Z,5.88
2023-02-18T09:46:03.558Z,5.45
2023-02-18T09:47:39.947Z,4.32
2023-02-18T09:48:44.983Z,6.03
2023-02-18T09:49:54.829Z,5.80
2023-02-18T09:50:58.006Z,5.43
2023-02-18T09:52:13.123Z,5.68
2023-02-18T09:53:16.354Z,5.93
2023-02-18T09:54:20.679Z,6.97
2023-02-18T09:55:28.565Z,6.22
2023-02-18T09:56:40.529Z,7.07
2023-02-18T09:57:59.679Z,6.15
2023-02-18T09:59:06.402Z,6.75
2023-02-18T10:00:20.041Z,6.80
2023-02-18T10:01:27.921Z,6.47
2023-02-18T10:02:31.482Z,6.78
2023-02-18T10:03:34.087Z,6.93
2023-02-18T10:04:52.365Z,6.80
2023-02-18T10:06:02.564Z,7.00
2023-02-18T10:07:06.852Z,7.57
2023-02-18T10:08:25.094Z,6.53
2023-02-18T10:09:36.737Z,6.78
2023-02-18T10:10:46.239Z,7.50
2023-02-18T10:11:52.941Z,6.53
2023-02-18T10:12:58.992Z,6.75
2023-02-18T10:14:03.317Z,6.72
2023-02-18T10:15:17.101Z,5.90
2023-02-18T10:16:22.188Z,6.90
2023-02-18T10:17:27.533Z,7.28
2023-02-18T10:18:36.413Z,6.88
2023-02-18T10:19:41.214Z,6.43
2023-02-18T10:20:44.338Z,6.80
2023-02-18T10:21:48.294Z,5.78
2023-02-18T10:22:53.095Z,6.18
2023-02-18T10:24:34.861Z,6.03
2023-02-18T10:25:43.754Z,6.38
2023-02-18T10:26:46.387Z,6.68
2023-02-18T10:27:52.265Z,5.65
2023-02-18T10:28:55.380Z,4.60
2023-02-18T10:30:17.634Z,4.95
2023-02-18T10:31:34.535Z,4.85
2023-02-18T10:32:40.636Z,5.93
2023-02-18T10:34:16.269Z,5.43
2023-02-18T10:36:00.082Z,5.63
2023-02-18T10:37:14.967Z,3.60
2023-02-18T10:38:35.598Z,4.13
2023-02-18T10:39:50.613Z,3.50
2023-02-18T10:41:26.376Z,3.92
2023-02-18T10:43:01.513Z,3.33
2023-02-18T10:44:17.365Z,3.00
2023-02-18T10:45:37.886Z,3.50
2023-02-18T10:46:43.431Z,3.30
2023-02-18T10:47:56.843Z,3.17
2023-02-18T10:49:06.931Z,2.65
2023-02-18T10:50:19.142Z,2.45
2023-02-18T10:51:26.142Z,2.67
2023-02-18T10:52:33.933Z,2.47
2023-02-18T10:53:40.669Z,2.50
2023-02-18T10:55:16.017Z,2.45
2023-02-18T10:56:41.283Z,2.33
2023-02-18T10:57:49.903Z,1.98
2023-02-18T10:58:54.819Z,1.90
2023-02-18T11:00:26.828Z,2.33
2023-02-18T11:01:31.736Z,2.17
2023-02-18T11:02:34.783Z,2.50
2023-02-18T11:03:48.111Z,2.92
2023-02-18T11:04:51.294Z,2.40
2023-02-18T11:05:57.239Z,2.45
2023-02-18T11:07:05.871Z,2.45
2023-02-18T11:08:11.520Z,2.60
2023-02-18T11:09:51.610Z,2.22
2023-02-18T11:10:56.765Z,2.50
2023-02-18T11:12:08.751Z,1.90
2023-02-18T11:13:16.805Z,1.83
2023-02-18T11:14:41.524Z,1.80
2023-02-18T11:16:06.770Z,2.50
2023-02-18T11:17:17.176Z,2.80
2023-02-18T11:18:38.536Z,1.90
2023-02-18T11:19:41.664Z,1.98
2023-02-18T11:20:59.895Z,1.27
2023-02-18T11:22:29.054Z,1.77
2023-02-18T11:23:32.196Z,1.95
2023-02-18T11:24:39.507Z,1.70
2023-02-18T11:25:59.662Z,2.10
2023-02-18T11:27:02.782Z,2.65
2023-02-18T11:28:27.507Z,1.95
2023-02-18T11:29:33.271Z,2.78
2023-02-18T11:30:43.839Z,1.88
2023-02-18T11:31:50.383Z,1.90
2023-02-18T11:32:59.798Z,2.10
2023-02-18T11:34:04.234Z,2.05
2023-02-18T11:35:07.716Z,2.45
2023-02-18T11:36:20.438Z,2.10
2023-02-18T11:37:24.048Z,1.75
2023-02-18T11:38:37.483Z,1.73
2023-02-18T11:39:46.124Z,2.15
2023-02-18T11:40:56.693Z,1.85
2023-02-18T11:42:01.382Z,2.10
2023-02-18T11:43:21.892Z,2.90
2023-02-18T11:44:27.293Z,2.50
2023-02-18T11:45:33.668Z,2.90
2023-02-18T11:46:36.441Z,2.63
2023-02-18T11:47:39.308Z,2.47
2023-02-18T11:48:42.536Z,2.40
2023-02-18T11:50:19.868Z,2.45
2023-02-18T11:51:48.831Z,2.63
2023-02-18T11:52:52.400Z,2.97
2023-02-18T11:54:01.752Z,1.95
2023-02-18T11:55:16.452Z,4.72
2023-02-18T11:56:20.637Z,2.80
2023-02-18T11:57:26.559Z,2.67
2023-02-18T11:58:38.837Z,2.97
2023-02-18T11:59:43.083Z,3.60
2023-02-18T12:00:48.202Z,3.85
2023-02-18T12:02:01.460Z,3.03
2023-02-18T12:03:26.969Z,3.42
2023-02-18T12:04:39.157Z,3.00
2023-02-18T12:05:43.327Z,3.65
2023-02-18T12:06:48.728Z,2.83
2023-02-18T12:07:59.530Z,3.83
2023-02-18T12:10:23.052Z,3.20
2023-02-18T12:11:45.105Z,2.83
2023-02-18T12:12:54.852Z,3.65
2023-02-18T12:13:58.933Z,4.05
2023-02-18T12:15:01.914Z,3.22
2023-02-18T12:16:46.910Z,2.30
2023-02-18T12:18:12.617Z,3.40
2023-02-18T12:19:37.602Z,4.20
2023-02-18T12:21:00.377Z,4.25
2023-02-18T12:22:27.138Z,2.65
2023-02-18T12:23:57.020Z,2.90
2023-02-18T12:25:24.267Z,2.58
2023-02-18T12:26:38.668Z,3.10
2023-02-18T12:28:09.991Z,3.22
2023-02-18T12:29:35.817Z,2.88
2023-02-18T12:30:53.605Z,2.95
2023-02-18T12:32:20.190Z,2.60
2023-02-18T12:33:47.074Z,3.22
2023-02-18T12:35:00.987Z,3.08
2023-02-18T12:36:30.988Z,2.92
2023-02-18T12:38:09.278Z,2.92
2023-02-18T12:39:40.951Z,3.03
2023-02-18T12:41:05.312Z,3.15
2023-02-18T12:42:14.560Z,3.13
2023-02-18T12:43:23.193Z,2.25
2023-02-18T12:44:45.771Z,2.45
2023-02-18T12:46:02.341Z,3.40
2023-02-18T12:47:16.720Z,3.13
2023-02-18T12:48:37.508Z,3.13
2023-02-18T12:50:03.284Z,2.92
2023-02-18T12:51:43.488Z,2.95
2023-02-18T12:53:12.652Z,2.58
2023-02-18T12:54:39.656Z,3.75
2023-02-18T12:55:47.218Z,2.47
2023-02-18T12:57:06.296Z,2.50
2023-02-18T12:58:26.943Z,3.08
2023-02-18T12:59:32.716Z,2.58
2023-02-18T13:00:42.787Z,2.88
2023-02-18T13:02:07.146Z,2.65
2023-02-18T13:03:48.430Z,2.55
2023-02-18T13:06:07.836Z,2.53
2023-02-18T13:07:24.920Z,2.30
2023-02-18T13:08:28.048Z,2.42
2023-02-18T13:09:50.959Z,3.13
2023-02-18T13:11:38.364Z,3.88
2023-02-18T13:12:51.681Z,2.85
2023-02-18T13:14:01.766Z,2.78
2023-02-18T13:15:27.567Z,2.60
2023-02-18T13:16:32.990Z,3.13
2023-02-18T13:17:39.569Z,2.00
2023-02-18T13:18:55.291Z,1.90
2023-02-18T13:20:07.893Z,2.13
2023-02-18T13:21:15.936Z,2.90
2023-02-18T13:22:23.376Z,2.03
2023-02-18T13:23:34.787Z,1.98
2023-02-18T13:24:48.220Z,2.78
2023-02-18T13:25:59.499Z,1.20
2023-02-18T13:27:12.346Z,2.38
2023-02-18T13:28:33.592Z,1.80
2023-02-18T13:30:11.362Z,2.45
2023-02-18T13:31:46.336Z,2.38
2023-02-18T13:32:57.595Z,1.75
2023-02-18T13:34:29.402Z,1.63
2023-02-18T13:36:01.198Z,2.38
2023-02-18T13:37:07.083Z,1.63
2023-02-18T13:38:28.205Z,3.22
2023-02-18T13:39:32.884Z,2.08
2023-02-18T13:40:36.725Z,1.30
2023-02-18T13:41:42.865Z,2.20
2023-02-18T13:42:45.607Z,1.65
2023-02-18T13:43:48.979Z,2.78
2023-02-18T13:44:57.979Z,5.93
2023-02-18T13:46:12.235Z,3.40
2023-02-18T13:47:39.143Z,2.95
2023-02-18T13:48:52.650Z,2.85
2023-02-18T13:49:55.705Z,5.60
2023-02-18T13:51:04.628Z,2.83
2023-02-18T13:52:07.820Z,3.83
2023-02-18T13:53:13.104Z,4.53
2023-02-18T13:54:28.518Z,2.55
2023-02-18T13:55:38.440Z,2.40
2023-02-18T13:56:45.684Z,3.08
2023-02-18T13:57:53.550Z,2.95
2023-02-18T13:59:00.799Z,3.65
2023-02-18T14:00:15.554Z,2.10
2023-02-18T14:01:27.676Z,2.30
2023-02-18T14:02:36.307Z,2.42
2023-02-18T14:03:45.289Z,4.63
2023-02-18T14:04:50.122Z,2.72
2023-02-18T14:05:56.924Z,2.35
2023-02-18T14:07:36.213Z,1.85
2023-02-18T14:08:40.036Z,2.13
2023-02-18T14:09:44.010Z,1.67
2023-02-18T14:11:12.430Z,0.93
2023-02-18T14:12:41.482Z,1.27
2023-02-18T14:13:49.780Z,2.55
2023-02-18T14:14:53.340Z,1.42
2023-02-18T14:16:00.301Z,2.97
2023-02-18T14:17:18.304Z,1.42
2023-02-18T14:18:38.846Z,1.27
2023-02-18T14:19:41.612Z,1.85
2023-02-18T14:20:51.446Z,1.35
2023-02-18T14:22:32.863Z,1.48
2023-02-18T14:24:50.017Z,1.65
2023-02-18T14:27:16.895Z,1.27
2023-02-18T14:28:34.671Z,2.15
2023-02-18T14:29:37.295Z,1.33
2023-02-18T14:30:42.417Z,1.40
2023-02-18T14:31:50.262Z,1.27
2023-02-18T14:32:58.665Z,1.70
2023-02-18T14:34:01.193Z,2.53
2023-02-18T14:35:06.704Z,2.42
2023-02-18T14:36:15.107Z,1.13
2023-02-18T14:37:51.699Z,2.30
2023-02-18T14:39:06.584Z,1.73
2023-02-18T14:40:14.643Z,1.60
2023-02-18T14:41:38.986Z,1.50
2023-02-18T14:42:59.267Z,2.15
2023-02-18T14:44:28.076Z,1.02
2023-02-18T14:45:46.686Z,1.35
2023-02-18T14:47:20.034Z,1.63
2023-02-18T14:49:05.400Z,1.42
2023-02-18T14:50:15.363Z,1.83
2023-02-18T14:51:22.086Z,2.05
2023-02-18T14:52:49.087Z,0.75
2023-02-18T14:53:52.803Z,1.70
2023-02-18T14:54:56.409Z,1.88
2023-02-18T14:56:04.691Z,1.20
2023-02-18T14:57:14.296Z,1.58
2023-02-18T14:58:29.898Z,1.98
2023-02-18T14:59:38.178Z,1.67
2023-02-18T15:00:43.107Z,2.30
2023-02-18T15:01:47.703Z,1.88
2023-02-18T15:02:53.188Z,2.35
2023-02-18T15:03:56.694Z,1.40
2023-02-18T15:05:13.962Z,1.63
2023-02-18T15:06:37.472Z,1.73
2023-02-18T15:07:40.593Z,2.30
2023-02-18T15:08:43.717Z,2.03
2023-02-18T15:09:49.117Z,1.40
2023-02-18T15:11:03.300Z,2.03
2023-02-18T15:12:09.403Z,2.10
2023-02-18T15:13:28.839Z,1.73
2023-02-18T15:14:35.088Z,1.90
2023-02-18T15:15:44.097Z,1.67